sensor_id;sensor_type;location;lat;lon;timestamp;temperature;humidity
63047;DHT22;62025;39.238;9.126;2022-12-18T00:04:00;14.80;71.90
63047;DHT22;62025;39.238;9.126;2022-12-18T00:06:29;14.80;72.20
63047;DHT22;62025;39.238;9.126;2022-12-18T00:08:57;14.80;72.20
63047;DHT22;62025;39.238;9.126;2022-12-18T00:11:25;14.80;72.40
63047;DHT22;62025;39.238;9.126;2022-12-18T00:13:54;14.80;72.30
63047;DHT22;62025;39.238;9.126;2022-12-18T00:16:23;14.80;72.40
63047;DHT22;62025;39.238;9.126;2022-12-18T00:18:51;14.80;72.50
63047;DHT22;62025;39.238;9.126;2022-12-18T00:21:19;14.80;72.60
63047;DHT22;62025;39.238;9.126;2022-12-18T00:23:46;14.80;72.70
63047;DHT22;62025;39.238;9.126;2022-12-18T00:26:16;14.80;72.80
63047;DHT22;62025;39.238;9.126;2022-12-18T00:28:45;14.80;73.10
63047;DHT22;62025;39.238;9.126;2022-12-18T00:31:17;14.80;73.10
63047;DHT22;62025;39.238;9.126;2022-12-18T00:33:44;14.80;73.10
63047;DHT22;62025;39.238;9.126;2022-12-18T00:36:13;14.80;73.00
63047;DHT22;62025;39.238;9.126;2022-12-18T00:38:41;14.70;73.10
63047;DHT22;62025;39.238;9.126;2022-12-18T00:41:10;14.70;73.30
63047;DHT22;62025;39.238;9.126;2022-12-18T00:43:38;14.70;73.30
63047;DHT22;62025;39.238;9.126;2022-12-18T00:46:05;14.70;73.40
63047;DHT22;62025;39.238;9.126;2022-12-18T00:48:32;14.70;73.60
63047;DHT22;62025;39.238;9.126;2022-12-18T00:50:58;14.80;73.50
63047;DHT22;62025;39.238;9.126;2022-12-18T00:53:24;14.70;73.60
63047;DHT22;62025;39.238;9.126;2022-12-18T00:55:50;14.70;73.50
63047;DHT22;62025;39.238;9.126;2022-12-18T00:58:16;14.70;73.50
63047;DHT22;62025;39.238;9.126;2022-12-18T01:00:43;14.70;73.60
63047;DHT22;62025;39.238;9.126;2022-12-18T01:03:13;14.70;73.70
63047;DHT22;62025;39.238;9.126;2022-12-18T01:05:42;14.70;73.70
63047;DHT22;62025;39.238;9.126;2022-12-18T01:08:08;14.70;73.90
63047;DHT22;62025;39.238;9.126;2022-12-18T01:10:35;14.70;73.70
63047;DHT22;62025;39.238;9.126;2022-12-18T01:13:00;14.70;73.60
63047;DHT22;62025;39.238;9.126;2022-12-18T01:15:26;14.70;73.60
63047;DHT22;62025;39.238;9.126;2022-12-18T01:17:53;14.70;73.40
63047;DHT22;62025;39.238;9.126;2022-12-18T01:20:19;14.70;73.20
63047;DHT22;62025;39.238;9.126;2022-12-18T01:22:45;14.70;73.00
63047;DHT22;62025;39.238;9.126;2022-12-18T01:25:11;14.70;72.70
63047;DHT22;62025;39.238;9.126;2022-12-18T01:27:37;14.60;72.40
63047;DHT22;62025;39.238;9.126;2022-12-18T01:30:03;14.60;72.20
63047;DHT22;62025;39.238;9.126;2022-12-18T01:32:31;14.50;72.30
63047;DHT22;62025;39.238;9.126;2022-12-18T01:34:57;14.40;72.40
63047;DHT22;62025;39.238;9.126;2022-12-18T01:37:23;14.40;72.20
63047;DHT22;62025;39.238;9.126;2022-12-18T01:39:49;14.40;72.30
63047;DHT22;62025;39.238;9.126;2022-12-18T01:42:16;14.40;72.10
63047;DHT22;62025;39.238;9.126;2022-12-18T01:47:47;14.30;72.30
63047;DHT22;62025;39.238;9.126;2022-12-18T01:50:34;14.40;72.00
63047;DHT22;62025;39.238;9.126;2022-12-18T01:53:17;14.30;72.00
63047;DHT22;62025;39.238;9.126;2022-12-18T01:55:57;14.30;72.20
63047;DHT22;62025;39.238;9.126;2022-12-18T02:01:15;14.40;72.00
63047;DHT22;62025;39.238;9.126;2022-12-18T02:03:43;14.30;72.00
63047;DHT22;62025;39.238;9.126;2022-12-18T02:09:13;14.60;71.70
63047;DHT22;62025;39.238;9.126;2022-12-18T02:11:45;14.50;71.40
63047;DHT22;62025;39.238;9.126;2022-12-18T02:14:38;14.50;71.30
63047;DHT22;62025;39.238;9.126;2022-12-18T02:17:32;14.40;71.30
63047;DHT22;62025;39.238;9.126;2022-12-18T02:23:15;14.30;71.70
63047;DHT22;62025;39.238;9.126;2022-12-18T02:29:08;14.20;71.90
63047;DHT22;62025;39.238;9.126;2022-12-18T02:31:51;14.10;72.00
63047;DHT22;62025;39.238;9.126;2022-12-18T02:34:20;14.00;72.20
63047;DHT22;62025;39.238;9.126;2022-12-18T02:36:48;14.00;72.40
63047;DHT22;62025;39.238;9.126;2022-12-18T02:39:16;14.00;72.60
63047;DHT22;62025;39.238;9.126;2022-12-18T02:41:57;14.10;72.70
63047;DHT22;62025;39.238;9.126;2022-12-18T02:44:24;14.10;72.50
63047;DHT22;62025;39.238;9.126;2022-12-18T02:46:52;14.00;72.80
63047;DHT22;62025;39.238;9.126;2022-12-18T02:49:31;14.00;72.80
63047;DHT22;62025;39.238;9.126;2022-12-18T02:58:08;14.10;72.50
63047;DHT22;62025;39.238;9.126;2022-12-18T03:00:43;14.00;72.60
63047;DHT22;62025;39.238;9.126;2022-12-18T03:03:55;14.10;72.60
63047;DHT22;62025;39.238;9.126;2022-12-18T03:06:25;14.00;72.50
63047;DHT22;62025;39.238;9.126;2022-12-18T03:08:59;14.00;72.60
63047;DHT22;62025;39.238;9.126;2022-12-18T03:11:33;14.00;72.80
63047;DHT22;62025;39.238;9.126;2022-12-18T03:14:20;14.00;72.80
63047;DHT22;62025;39.238;9.126;2022-12-18T03:16:52;14.10;72.80
63047;DHT22;62025;39.238;9.126;2022-12-18T03:19:22;14.00;72.50
63047;DHT22;62025;39.238;9.126;2022-12-18T03:21:56;14.10;72.40
63047;DHT22;62025;39.238;9.126;2022-12-18T03:24:26;14.10;72.30
63047;DHT22;62025;39.238;9.126;2022-12-18T03:26:57;14.10;72.40
63047;DHT22;62025;39.238;9.126;2022-12-18T03:29:38;14.10;72.40
63047;DHT22;62025;39.238;9.126;2022-12-18T03:32:27;14.10;72.70
63047;DHT22;62025;39.238;9.126;2022-12-18T03:35:01;14.10;72.80
63047;DHT22;62025;39.238;9.126;2022-12-18T03:37:32;14.00;72.80
63047;DHT22;62025;39.238;9.126;2022-12-18T03:39:59;13.90;73.00
63047;DHT22;62025;39.238;9.126;2022-12-18T03:45:27;13.90;73.20
63047;DHT22;62025;39.238;9.126;2022-12-18T03:48:19;14.00;73.10
63047;DHT22;62025;39.238;9.126;2022-12-18T03:51:34;14.10;72.70
63047;DHT22;62025;39.238;9.126;2022-12-18T03:54:06;14.20;72.10
63047;DHT22;62025;39.238;9.126;2022-12-18T03:56:44;14.20;71.80
63047;DHT22;62025;39.238;9.126;2022-12-18T03:59:15;14.10;71.50
63047;DHT22;62025;39.238;9.126;2022-12-18T04:01:47;14.10;71.50
63047;DHT22;62025;39.238;9.126;2022-12-18T04:04:17;14.00;71.50
63047;DHT22;62025;39.238;9.126;2022-12-18T04:06:46;14.00;71.50
63047;DHT22;62025;39.238;9.126;2022-12-18T04:09:13;13.90;71.30
63047;DHT22;62025;39.238;9.126;2022-12-18T04:11:43;13.90;71.10
63047;DHT22;62025;39.238;9.126;2022-12-18T04:14:12;13.90;70.50
63047;DHT22;62025;39.238;9.126;2022-12-18T04:16:38;14.00;70.50
63047;DHT22;62025;39.238;9.126;2022-12-18T04:19:07;13.90;70.20
63047;DHT22;62025;39.238;9.126;2022-12-18T04:21:38;13.90;70.30
63047;DHT22;62025;39.238;9.126;2022-12-18T04:24:05;14.00;70.00
63047;DHT22;62025;39.238;9.126;2022-12-18T04:26:33;13.90;70.10
63047;DHT22;62025;39.238;9.126;2022-12-18T04:29:15;13.90;70.20
63047;DHT22;62025;39.238;9.126;2022-12-18T04:31:41;13.90;70.10
63047;DHT22;62025;39.238;9.126;2022-12-18T04:34:08;13.90;70.00
63047;DHT22;62025;39.238;9.126;2022-12-18T04:36:40;13.80;70.00
63047;DHT22;62025;39.238;9.126;2022-12-18T04:39:07;13.80;70.20
63047;DHT22;62025;39.238;9.126;2022-12-18T04:41:34;13.60;70.30
63047;DHT22;62025;39.238;9.126;2022-12-18T04:44:01;13.70;70.60
63047;DHT22;62025;39.238;9.126;2022-12-18T04:46:27;13.60;70.80
63047;DHT22;62025;39.238;9.126;2022-12-18T04:48:53;13.50;71.00
63047;DHT22;62025;39.238;9.126;2022-12-18T04:51:19;13.50;71.30
63047;DHT22;62025;39.238;9.126;2022-12-18T04:53:45;13.40;71.40
63047;DHT22;62025;39.238;9.126;2022-12-18T04:56:13;13.40;71.40
63047;DHT22;62025;39.238;9.126;2022-12-18T04:58:41;13.50;71.30
63047;DHT22;62025;39.238;9.126;2022-12-18T05:01:10;13.50;71.10
63047;DHT22;62025;39.238;9.126;2022-12-18T05:03:37;13.50;71.20
63047;DHT22;62025;39.238;9.126;2022-12-18T05:06:04;13.60;71.20
63047;DHT22;62025;39.238;9.126;2022-12-18T05:08:31;13.70;70.80
63047;DHT22;62025;39.238;9.126;2022-12-18T05:11:06;13.60;70.70
63047;DHT22;62025;39.238;9.126;2022-12-18T05:13:36;13.60;70.60
63047;DHT22;62025;39.238;9.126;2022-12-18T05:16:03;13.60;70.50
63047;DHT22;62025;39.238;9.126;2022-12-18T05:18:30;13.60;70.60
63047;DHT22;62025;39.238;9.126;2022-12-18T05:20:57;13.60;70.40
63047;DHT22;62025;39.238;9.126;2022-12-18T05:23:24;13.60;70.30
63047;DHT22;62025;39.238;9.126;2022-12-18T05:25:52;13.70;70.30
63047;DHT22;62025;39.238;9.126;2022-12-18T05:28:24;13.60;70.20
63047;DHT22;62025;39.238;9.126;2022-12-18T05:30:53;13.70;70.00
63047;DHT22;62025;39.238;9.126;2022-12-18T05:33:24;13.70;69.90
63047;DHT22;62025;39.238;9.126;2022-12-18T05:35:56;13.60;70.10
63047;DHT22;62025;39.238;9.126;2022-12-18T05:38:24;13.50;70.30
63047;DHT22;62025;39.238;9.126;2022-12-18T05:40:51;13.50;70.30
63047;DHT22;62025;39.238;9.126;2022-12-18T05:43:18;13.40;70.30
63047;DHT22;62025;39.238;9.126;2022-12-18T05:45:45;13.40;70.30
63047;DHT22;62025;39.238;9.126;2022-12-18T05:48:11;13.30;70.50
63047;DHT22;62025;39.238;9.126;2022-12-18T05:50:39;13.30;70.50
63047;DHT22;62025;39.238;9.126;2022-12-18T05:53:06;13.30;70.40
63047;DHT22;62025;39.238;9.126;2022-12-18T05:55:34;13.30;70.30
63047;DHT22;62025;39.238;9.126;2022-12-18T05:58:05;13.30;70.60
63047;DHT22;62025;39.238;9.126;2022-12-18T06:00:33;13.30;70.60
63047;DHT22;62025;39.238;9.126;2022-12-18T06:03:01;13.30;70.60
63047;DHT22;62025;39.238;9.126;2022-12-18T06:05:27;13.30;70.60
63047;DHT22;62025;39.238;9.126;2022-12-18T06:07:53;13.40;70.60
63047;DHT22;62025;39.238;9.126;2022-12-18T06:10:19;13.30;70.70
63047;DHT22;62025;39.238;9.126;2022-12-18T06:12:45;13.40;70.60
63047;DHT22;62025;39.238;9.126;2022-12-18T06:15:11;13.40;70.30
63047;DHT22;62025;39.238;9.126;2022-12-18T06:17:37;13.30;70.50
63047;DHT22;62025;39.238;9.126;2022-12-18T06:20:04;13.30;70.60
63047;DHT22;62025;39.238;9.126;2022-12-18T06:22:32;13.20;70.90
63047;DHT22;62025;39.238;9.126;2022-12-18T06:24:58;13.20;70.90
63047;DHT22;62025;39.238;9.126;2022-12-18T06:27:25;13.30;70.80
63047;DHT22;62025;39.238;9.126;2022-12-18T06:29:50;13.20;70.80
63047;DHT22;62025;39.238;9.126;2022-12-18T06:32:16;13.20;70.90
63047;DHT22;62025;39.238;9.126;2022-12-18T06:34:42;13.10;71.10
63047;DHT22;62025;39.238;9.126;2022-12-18T06:37:08;13.20;71.20
63047;DHT22;62025;39.238;9.126;2022-12-18T06:39:34;13.20;71.10
63047;DHT22;62025;39.238;9.126;2022-12-18T06:42:00;13.30;70.80
63047;DHT22;62025;39.238;9.126;2022-12-18T06:44:26;13.30;70.60
63047;DHT22;62025;39.238;9.126;2022-12-18T06:46:52;13.20;70.80
63047;DHT22;62025;39.238;9.126;2022-12-18T06:49:18;13.30;70.40
63047;DHT22;62025;39.238;9.126;2022-12-18T06:51:44;13.50;70.00
63047;DHT22;62025;39.238;9.126;2022-12-18T06:54:10;13.60;69.80
63047;DHT22;62025;39.238;9.126;2022-12-18T06:56:36;13.60;69.50
63047;DHT22;62025;39.238;9.126;2022-12-18T06:59:02;13.30;69.50
63047;DHT22;62025;39.238;9.126;2022-12-18T07:01:28;13.00;70.70
63047;DHT22;62025;39.238;9.126;2022-12-18T07:03:55;13.00;71.50
63047;DHT22;62025;39.238;9.126;2022-12-18T07:06:24;12.90;71.60
63047;DHT22;62025;39.238;9.126;2022-12-18T07:08:51;13.00;71.20
63047;DHT22;62025;39.238;9.126;2022-12-18T07:11:19;13.40;70.10
63047;DHT22;62025;39.238;9.126;2022-12-18T07:13:45;13.50;69.60
63047;DHT22;62025;39.238;9.126;2022-12-18T07:16:17;13.60;69.40
63047;DHT22;62025;39.238;9.126;2022-12-18T07:18:44;13.80;68.80
63047;DHT22;62025;39.238;9.126;2022-12-18T07:21:13;13.80;68.50
63047;DHT22;62025;39.238;9.126;2022-12-18T07:23:41;13.90;68.00
63047;DHT22;62025;39.238;9.126;2022-12-18T07:26:09;14.20;67.80
63047;DHT22;62025;39.238;9.126;2022-12-18T07:28:39;14.20;67.20
63047;DHT22;62025;39.238;9.126;2022-12-18T07:31:11;14.50;66.30
63047;DHT22;62025;39.238;9.126;2022-12-18T07:33:42;14.70;65.80
63047;DHT22;62025;39.238;9.126;2022-12-18T07:36:10;14.80;65.00
63047;DHT22;62025;39.238;9.126;2022-12-18T07:38:37;14.80;64.40
63047;DHT22;62025;39.238;9.126;2022-12-18T07:41:05;14.80;64.40
63047;DHT22;62025;39.238;9.126;2022-12-18T07:43:33;14.90;64.60
63047;DHT22;62025;39.238;9.126;2022-12-18T07:45:59;15.00;64.40
63047;DHT22;62025;39.238;9.126;2022-12-18T07:48:25;15.30;63.80
63047;DHT22;62025;39.238;9.126;2022-12-18T07:50:52;15.20;63.40
63047;DHT22;62025;39.238;9.126;2022-12-18T07:53:17;15.50;63.10
63047;DHT22;62025;39.238;9.126;2022-12-18T07:55:43;15.80;62.00
63047;DHT22;62025;39.238;9.126;2022-12-18T07:58:10;15.90;61.70
63047;DHT22;62025;39.238;9.126;2022-12-18T08:00:36;15.90;61.80
63047;DHT22;62025;39.238;9.126;2022-12-18T08:03:02;15.90;61.60
63047;DHT22;62025;39.238;9.126;2022-12-18T08:05:28;15.80;61.80
63047;DHT22;62025;39.238;9.126;2022-12-18T08:07:54;15.90;61.90
63047;DHT22;62025;39.238;9.126;2022-12-18T08:10:21;16.40;61.10
63047;DHT22;62025;39.238;9.126;2022-12-18T08:12:51;16.40;60.60
63047;DHT22;62025;39.238;9.126;2022-12-18T08:15:17;16.30;61.10
63047;DHT22;62025;39.238;9.126;2022-12-18T08:17:43;16.30;61.10
63047;DHT22;62025;39.238;9.126;2022-12-18T08:20:09;16.30;61.00
63047;DHT22;62025;39.238;9.126;2022-12-18T08:22:36;16.50;60.50
63047;DHT22;62025;39.238;9.126;2022-12-18T08:25:03;16.70;60.20
63047;DHT22;62025;39.238;9.126;2022-12-18T08:27:30;17.00;59.80
63047;DHT22;62025;39.238;9.126;2022-12-18T08:29:57;17.30;58.90
63047;DHT22;62025;39.238;9.126;2022-12-18T08:32:23;17.00;59.10
63047;DHT22;62025;39.238;9.126;2022-12-18T08:34:50;17.10;59.20
63047;DHT22;62025;39.238;9.126;2022-12-18T08:37:16;17.50;59.00
63047;DHT22;62025;39.238;9.126;2022-12-18T08:39:42;17.70;57.80
63047;DHT22;62025;39.238;9.126;2022-12-18T08:42:08;17.50;58.80
63047;DHT22;62025;39.238;9.126;2022-12-18T08:44:52;17.90;58.90
63047;DHT22;62025;39.238;9.126;2022-12-18T08:47:18;18.10;57.30
63047;DHT22;62025;39.238;9.126;2022-12-18T08:49:44;18.30;57.60
63047;DHT22;62025;39.238;9.126;2022-12-18T08:52:10;18.30;57.20
63047;DHT22;62025;39.238;9.126;2022-12-18T08:54:36;18.30;56.50
63047;DHT22;62025;39.238;9.126;2022-12-18T08:57:02;18.40;56.80
63047;DHT22;62025;39.238;9.126;2022-12-18T08:59:28;18.60;56.30
63047;DHT22;62025;39.238;9.126;2022-12-18T09:01:54;18.70;56.00
63047;DHT22;62025;39.238;9.126;2022-12-18T09:04:21;18.90;55.60
63047;DHT22;62025;39.238;9.126;2022-12-18T09:06:47;18.90;55.40
63047;DHT22;62025;39.238;9.126;2022-12-18T09:09:13;19.00;55.50
63047;DHT22;62025;39.238;9.126;2022-12-18T09:11:39;19.00;55.50
63047;DHT22;62025;39.238;9.126;2022-12-18T09:14:05;19.30;55.30
63047;DHT22;62025;39.238;9.126;2022-12-18T09:16:32;19.50;55.90
63047;DHT22;62025;39.238;9.126;2022-12-18T09:19:01;20.10;56.00
63047;DHT22;62025;39.238;9.126;2022-12-18T09:21:31;20.30;55.90
63047;DHT22;62025;39.238;9.126;2022-12-18T09:23:58;20.30;54.70
63047;DHT22;62025;39.238;9.126;2022-12-18T09:26:25;20.00;54.50
63047;DHT22;62025;39.238;9.126;2022-12-18T09:28:52;19.50;56.10
63047;DHT22;62025;39.238;9.126;2022-12-18T09:31:20;18.80;56.90
63047;DHT22;62025;39.238;9.126;2022-12-18T09:33:47;18.50;58.40
63047;DHT22;62025;39.238;9.126;2022-12-18T09:36:15;18.50;59.00
63047;DHT22;62025;39.238;9.126;2022-12-18T09:38:42;18.60;58.20
63047;DHT22;62025;39.238;9.126;2022-12-18T09:46:42;18.60;59.00
63047;DHT22;62025;39.238;9.126;2022-12-18T09:49:14;18.80;59.00
63047;DHT22;62025;39.238;9.126;2022-12-18T09:54:38;18.80;59.20
63047;DHT22;62025;39.238;9.126;2022-12-18T09:57:15;18.60;59.00
63047;DHT22;62025;39.238;9.126;2022-12-18T09:59:47;18.60;59.40
63047;DHT22;62025;39.238;9.126;2022-12-18T10:02:23;19.10;58.60
63047;DHT22;62025;39.238;9.126;2022-12-18T10:05:13;19.50;57.20
63047;DHT22;62025;39.238;9.126;2022-12-18T10:10:43;19.40;57.60
63047;DHT22;62025;39.238;9.126;2022-12-18T10:13:26;19.40;57.70
63047;DHT22;62025;39.238;9.126;2022-12-18T10:21:44;19.90;57.20
63047;DHT22;62025;39.238;9.126;2022-12-18T10:26:44;19.80;57.60
63047;DHT22;62025;39.238;9.126;2022-12-18T10:29:15;19.90;57.50
63047;DHT22;62025;39.238;9.126;2022-12-18T10:31:42;19.80;57.40
63047;DHT22;62025;39.238;9.126;2022-12-18T10:34:12;19.80;57.60
63047;DHT22;62025;39.238;9.126;2022-12-18T10:36:40;19.80;57.70
63047;DHT22;62025;39.238;9.126;2022-12-18T10:39:21;19.80;58.20
63047;DHT22;62025;39.238;9.126;2022-12-18T10:41:49;19.70;58.40
63047;DHT22;62025;39.238;9.126;2022-12-18T10:44:27;19.60;58.90
63047;DHT22;62025;39.238;9.126;2022-12-18T10:47:06;19.60;58.90
63047;DHT22;62025;39.238;9.126;2022-12-18T10:49:42;19.60;59.10
63047;DHT22;62025;39.238;9.126;2022-12-18T10:52:25;19.60;59.20
63047;DHT22;62025;39.238;9.126;2022-12-18T10:54:54;19.50;59.30
63047;DHT22;62025;39.238;9.126;2022-12-18T10:57:44;19.40;59.20
63047;DHT22;62025;39.238;9.126;2022-12-18T11:00:30;19.40;59.30
63047;DHT22;62025;39.238;9.126;2022-12-18T11:02:56;19.40;59.30
63047;DHT22;62025;39.238;9.126;2022-12-18T11:07:53;19.40;59.30
63047;DHT22;62025;39.238;9.126;2022-12-18T11:10:21;19.30;59.90
63047;DHT22;62025;39.238;9.126;2022-12-18T11:12:51;19.20;60.00
63047;DHT22;62025;39.238;9.126;2022-12-18T11:15:25;19.30;59.80
63047;DHT22;62025;39.238;9.126;2022-12-18T11:17:53;19.30;60.00
63047;DHT22;62025;39.238;9.126;2022-12-18T11:20:38;19.40;60.00
63047;DHT22;62025;39.238;9.126;2022-12-18T11:23:12;19.20;60.50
63047;DHT22;62025;39.238;9.126;2022-12-18T11:25:39;19.00;60.90
63047;DHT22;62025;39.238;9.126;2022-12-18T11:28:29;18.90;61.30
63047;DHT22;62025;39.238;9.126;2022-12-18T11:36:36;18.80;61.50
63047;DHT22;62025;39.238;9.126;2022-12-18T11:39:38;18.80;61.60
63047;DHT22;62025;39.238;9.126;2022-12-18T11:45:00;18.80;61.70
63047;DHT22;62025;39.238;9.126;2022-12-18T11:48:01;18.70;62.10
63047;DHT22;62025;39.238;9.126;2022-12-18T11:50:50;18.60;62.20
63047;DHT22;62025;39.238;9.126;2022-12-18T11:53:20;18.70;61.80
63047;DHT22;62025;39.238;9.126;2022-12-18T12:17:52;18.40;62.90
63047;DHT22;62025;39.238;9.126;2022-12-18T12:20:42;18.30;63.20
63047;DHT22;62025;39.238;9.126;2022-12-18T12:23:37;18.30;63.00
63047;DHT22;62025;39.238;9.126;2022-12-18T12:32:07;18.20;63.40
63047;DHT22;62025;39.238;9.126;2022-12-18T12:37:39;18.10;63.40
63047;DHT22;62025;39.238;9.126;2022-12-18T12:40:19;18.20;63.40
63047;DHT22;62025;39.238;9.126;2022-12-18T12:43:16;18.30;63.00
63047;DHT22;62025;39.238;9.126;2022-12-18T12:48:48;18.10;62.80
63047;DHT22;62025;39.238;9.126;2022-12-18T12:51:17;18.10;62.80
63047;DHT22;62025;39.238;9.126;2022-12-18T12:53:45;18.10;62.80
63047;DHT22;62025;39.238;9.126;2022-12-18T12:56:13;18.10;62.90
63047;DHT22;62025;39.238;9.126;2022-12-18T12:58:49;18.10;62.90
63047;DHT22;62025;39.238;9.126;2022-12-18T13:02:10;18.10;62.60
63047;DHT22;62025;39.238;9.126;2022-12-18T13:05:10;18.00;62.50
63047;DHT22;62025;39.238;9.126;2022-12-18T13:10:28;18.00;62.10
63047;DHT22;62025;39.238;9.126;2022-12-18T13:16:04;18.00;61.80
63047;DHT22;62025;39.238;9.126;2022-12-18T13:18:32;18.10;62.10
63047;DHT22;62025;39.238;9.126;2022-12-18T13:25:56;18.10;62.20
63047;DHT22;62025;39.238;9.126;2022-12-18T13:31:58;17.90;63.10
63047;DHT22;62025;39.238;9.126;2022-12-18T13:34:25;18.00;62.90
63047;DHT22;62025;39.238;9.126;2022-12-18T13:36:56;18.00;62.60
63047;DHT22;62025;39.238;9.126;2022-12-18T13:39:43;18.00;62.20
63047;DHT22;62025;39.238;9.126;2022-12-18T13:44:39;18.00;61.70
63047;DHT22;62025;39.238;9.126;2022-12-18T13:47:27;18.00;62.30
63047;DHT22;62025;39.238;9.126;2022-12-18T13:49:57;18.00;62.50
63047;DHT22;62025;39.238;9.126;2022-12-18T13:52:32;18.10;62.30
63047;DHT22;62025;39.238;9.126;2022-12-18T13:55:01;18.00;62.70
63047;DHT22;62025;39.238;9.126;2022-12-18T13:57:29;18.00;62.80
63047;DHT22;62025;39.238;9.126;2022-12-18T14:02:47;17.90;62.30
63047;DHT22;62025;39.238;9.126;2022-12-18T14:05:31;17.90;61.90
63047;DHT22;62025;39.238;9.126;2022-12-18T14:08:03;17.90;61.30
63047;DHT22;62025;39.238;9.126;2022-12-18T14:10:31;17.90;61.10
63047;DHT22;62025;39.238;9.126;2022-12-18T14:13:04;17.90;60.60
63047;DHT22;62025;39.238;9.126;2022-12-18T14:20:56;17.90;61.10
63047;DHT22;62025;39.238;9.126;2022-12-18T14:23:39;17.90;60.60
63047;DHT22;62025;39.238;9.126;2022-12-18T14:26:45;17.90;60.60
63047;DHT22;62025;39.238;9.126;2022-12-18T14:29:27;17.90;60.90
63047;DHT22;62025;39.238;9.126;2022-12-18T14:32:11;17.90;60.90
63047;DHT22;62025;39.238;9.126;2022-12-18T14:34:39;17.90;59.80
63047;DHT22;62025;39.238;9.126;2022-12-18T14:37:07;17.90;60.00
63047;DHT22;62025;39.238;9.126;2022-12-18T14:39:35;17.80;62.60
63047;DHT22;62025;39.238;9.126;2022-12-18T14:42:01;17.80;63.60
63047;DHT22;62025;39.238;9.126;2022-12-18T14:44:27;17.80;64.40
63047;DHT22;62025;39.238;9.126;2022-12-18T14:46:53;17.80;64.60
63047;DHT22;62025;39.238;9.126;2022-12-18T14:54:25;17.70;64.80
63047;DHT22;62025;39.238;9.126;2022-12-18T14:57:23;17.70;65.00
63047;DHT22;62025;39.238;9.126;2022-12-18T14:59:52;17.60;65.30
63047;DHT22;62025;39.238;9.126;2022-12-18T15:02:28;17.60;65.50
63047;DHT22;62025;39.238;9.126;2022-12-18T15:07:42;17.50;65.80
63047;DHT22;62025;39.238;9.126;2022-12-18T15:10:26;17.40;66.30
63047;DHT22;62025;39.238;9.126;2022-12-18T15:18:13;17.30;67.20
63047;DHT22;62025;39.238;9.126;2022-12-18T15:23:20;17.50;66.70
63047;DHT22;62025;39.238;9.126;2022-12-18T15:26:05;17.50;66.80
63047;DHT22;62025;39.238;9.126;2022-12-18T15:34:10;17.30;67.80
63047;DHT22;62025;39.238;9.126;2022-12-18T15:36:36;17.20;68.00
63047;DHT22;62025;39.238;9.126;2022-12-18T15:39:02;17.30;67.90
63047;DHT22;62025;39.238;9.126;2022-12-18T15:41:31;17.30;67.80
63047;DHT22;62025;39.238;9.126;2022-12-18T15:43:59;17.30;68.00
63047;DHT22;62025;39.238;9.126;2022-12-18T15:46:25;17.30;68.50
63047;DHT22;62025;39.238;9.126;2022-12-18T15:48:56;17.30;68.40
63047;DHT22;62025;39.238;9.126;2022-12-18T15:51:28;17.30;68.70
63047;DHT22;62025;39.238;9.126;2022-12-18T15:53:59;17.30;68.90
63047;DHT22;62025;39.238;9.126;2022-12-18T15:56:26;17.30;68.80
63047;DHT22;62025;39.238;9.126;2022-12-18T15:59:16;17.30;68.90
63047;DHT22;62025;39.238;9.126;2022-12-18T16:01:48;17.30;69.30
63047;DHT22;62025;39.238;9.126;2022-12-18T16:04:18;17.30;69.30
63047;DHT22;62025;39.238;9.126;2022-12-18T16:06:48;17.30;69.70
63047;DHT22;62025;39.238;9.126;2022-12-18T16:09:14;17.30;69.80
63047;DHT22;62025;39.238;9.126;2022-12-18T16:11:42;17.30;69.70
63047;DHT22;62025;39.238;9.126;2022-12-18T16:14:21;17.20;70.70
63047;DHT22;62025;39.238;9.126;2022-12-18T16:16:52;17.20;70.80
63047;DHT22;62025;39.238;9.126;2022-12-18T16:19:23;17.10;70.90
63047;DHT22;62025;39.238;9.126;2022-12-18T16:21:51;17.20;70.70
63047;DHT22;62025;39.238;9.126;2022-12-18T16:24:20;17.20;71.20
63047;DHT22;62025;39.238;9.126;2022-12-18T16:26:48;17.10;71.50
63047;DHT22;62025;39.238;9.126;2022-12-18T16:29:17;17.10;71.90
63047;DHT22;62025;39.238;9.126;2022-12-18T16:31:43;17.10;71.90
63047;DHT22;62025;39.238;9.126;2022-12-18T16:34:20;17.10;71.90
63047;DHT22;62025;39.238;9.126;2022-12-18T16:36:59;17.10;71.90
63047;DHT22;62025;39.238;9.126;2022-12-18T16:39:26;17.10;72.10
63047;DHT22;62025;39.238;9.126;2022-12-18T16:41:53;17.10;71.90
63047;DHT22;62025;39.238;9.126;2022-12-18T16:44:20;17.10;72.00
63047;DHT22;62025;39.238;9.126;2022-12-18T16:46:46;17.10;72.20
63047;DHT22;62025;39.238;9.126;2022-12-18T16:49:17;17.00;72.90
63047;DHT22;62025;39.238;9.126;2022-12-18T16:51:43;17.00;72.90
63047;DHT22;62025;39.238;9.126;2022-12-18T16:54:11;17.10;72.80
63047;DHT22;62025;39.238;9.126;2022-12-18T16:56:37;17.10;73.00
63047;DHT22;62025;39.238;9.126;2022-12-18T16:59:04;17.10;73.00
63047;DHT22;62025;39.238;9.126;2022-12-18T17:01:31;17.10;72.90
63047;DHT22;62025;39.238;9.126;2022-12-18T17:04:02;17.10;73.30
63047;DHT22;62025;39.238;9.126;2022-12-18T17:06:32;17.00;73.20
63047;DHT22;62025;39.238;9.126;2022-12-18T17:09:03;17.00;73.40
63047;DHT22;62025;39.238;9.126;2022-12-18T17:11:32;17.00;73.90
63047;DHT22;62025;39.238;9.126;2022-12-18T17:13:59;16.90;74.50
63047;DHT22;62025;39.238;9.126;2022-12-18T17:16:31;16.80;74.90
63047;DHT22;62025;39.238;9.126;2022-12-18T17:18:58;16.80;74.70
63047;DHT22;62025;39.238;9.126;2022-12-18T17:21:24;16.80;75.00
63047;DHT22;62025;39.238;9.126;2022-12-18T17:23:50;16.80;75.30
63047;DHT22;62025;39.238;9.126;2022-12-18T17:26:16;16.80;75.50
63047;DHT22;62025;39.238;9.126;2022-12-18T17:28:42;16.70;75.50
63047;DHT22;62025;39.238;9.126;2022-12-18T17:31:22;16.70;75.50
63047;DHT22;62025;39.238;9.126;2022-12-18T17:33:49;16.60;75.40
63047;DHT22;62025;39.238;9.126;2022-12-18T17:36:16;16.60;75.40
63047;DHT22;62025;39.238;9.126;2022-12-18T17:38:42;16.50;75.30
63047;DHT22;62025;39.238;9.126;2022-12-18T17:41:10;16.50;75.30
63047;DHT22;62025;39.238;9.126;2022-12-18T17:43:36;16.50;75.20
63047;DHT22;62025;39.238;9.126;2022-12-18T17:46:12;16.50;75.10
63047;DHT22;62025;39.238;9.126;2022-12-18T17:48:39;16.50;75.20
63047;DHT22;62025;39.238;9.126;2022-12-18T17:51:07;16.40;75.30
63047;DHT22;62025;39.238;9.126;2022-12-18T17:53:34;16.40;75.50
63047;DHT22;62025;39.238;9.126;2022-12-18T17:56:00;16.40;75.40
63047;DHT22;62025;39.238;9.126;2022-12-18T17:58:28;16.50;75.50
63047;DHT22;62025;39.238;9.126;2022-12-18T18:00:54;16.40;75.40
63047;DHT22;62025;39.238;9.126;2022-12-18T18:03:20;16.50;75.30
63047;DHT22;62025;39.238;9.126;2022-12-18T18:05:46;16.50;75.20
63047;DHT22;62025;39.238;9.126;2022-12-18T18:08:12;16.50;75.30
63047;DHT22;62025;39.238;9.126;2022-12-18T18:10:39;16.40;75.30